sensor_id;sensor_type;location;lat;lon;timestamp;P1;durP1;ratioP1;P2;durP2;ratioP2
68989;SDS011;56046;47.270;11.368;2023-03-15T00:00:18;1.93;;;0.63;;
68989;SDS011;56046;47.270;11.368;2023-03-15T00:02:44;1.35;;;0.65;;
68989;SDS011;56046;47.270;11.368;2023-03-15T00:05:12;1.33;;;0.70;;
68989;SDS011;56046;47.270;11.368;2023-03-15T00:07:37;0.73;;;0.50;;
68989;SDS011;56046;47.270;11.368;2023-03-15T00:10:03;1.98;;;0.40;;
68989;SDS011;56046;47.270;11.368;2023-03-15T00:12:28;1.60;;;0.60;;
68989;SDS011;56046;47.270;11.368;2023-03-15T00:14:54;3.53;;;0.80;;
68989;SDS011;56046;47.270;11.368;2023-03-15T00:17:19;1.17;;;0.60;;
68989;SDS011;56046;47.270;11.368;2023-03-15T00:19:46;3.33;;;0.90;;
68989;SDS011;56046;47.270;11.368;2023-03-15T00:22:12;2.10;;;0.80;;
68989;SDS011;56046;47.270;11.368;2023-03-15T00:24:37;1.47;;;0.80;;
68989;SDS011;56046;47.270;11.368;2023-03-15T00:27:02;2.47;;;1.03;;
68989;SDS011;56046;47.270;11.368;2023-03-15T00:29:29;2.83;;;1.15;;
68989;SDS011;56046;47.270;11.368;2023-03-15T00:31:54;4.90;;;1.57;;
68989;SDS011;56046;47.270;11.368;2023-03-15T00:34:19;2.70;;;1.20;;
68989;SDS011;56046;47.270;11.368;2023-03-15T00:36:48;3.08;;;1.30;;
68989;SDS011;56046;47.270;11.368;2023-03-15T00:39:14;3.67;;;1.27;;
68989;SDS011;56046;47.270;11.368;2023-03-15T00:41:39;3.65;;;1.20;;
68989;SDS011;56046;47.270;11.368;2023-03-15T00:44:05;2.13;;;0.80;;
68989;SDS011;56046;47.270;11.368;2023-03-15T00:46:30;2.20;;;0.80;;
68989;SDS011;56046;47.270;11.368;2023-03-15T00:48:55;1.30;;;0.50;;
68989;SDS011;56046;47.270;11.368;2023-03-15T00:51:21;1.07;;;0.73;;
68989;SDS011;56046;47.270;11.368;2023-03-15T00:53:48;2.05;;;0.70;;
68989;SDS011;56046;47.270;11.368;2023-03-15T00:56:15;1.57;;;0.70;;
68989;SDS011;56046;47.270;11.368;2023-03-15T00:58:41;0.90;;;0.63;;
68989;SDS011;56046;47.270;11.368;2023-03-15T01:01:10;1.10;;;0.70;;
68989;SDS011;56046;47.270;11.368;2023-03-15T01:03:36;1.55;;;0.70;;
68989;SDS011;56046;47.270;11.368;2023-03-15T01:06:05;2.33;;;0.63;;
68989;SDS011;56046;47.270;11.368;2023-03-15T01:08:31;1.02;;;0.60;;
68989;SDS011;56046;47.270;11.368;2023-03-15T01:11:00;1.10;;;0.67;;
68989;SDS011;56046;47.270;11.368;2023-03-15T01:13:25;1.35;;;0.50;;
68989;SDS011;56046;47.270;11.368;2023-03-15T01:15:50;1.80;;;0.90;;
68989;SDS011;56046;47.270;11.368;2023-03-15T01:18:16;1.77;;;0.60;;
68989;SDS011;56046;47.270;11.368;2023-03-15T01:20:42;1.53;;;0.60;;
68989;SDS011;56046;47.270;11.368;2023-03-15T01:23:07;1.55;;;0.68;;
68989;SDS011;56046;47.270;11.368;2023-03-15T01:25:33;1.10;;;0.60;;
68989;SDS011;56046;47.270;11.368;2023-03-15T01:27:58;1.33;;;0.70;;
68989;SDS011;56046;47.270;11.368;2023-03-15T01:30:23;1.30;;;0.60;;
68989;SDS011;56046;47.270;11.368;2023-03-15T01:32:48;1.30;;;0.70;;
68989;SDS011;56046;47.270;11.368;2023-03-15T01:35:14;1.97;;;0.70;;
68989;SDS011;56046;47.270;11.368;2023-03-15T01:37:39;1.50;;;0.60;;
68989;SDS011;56046;47.270;11.368;2023-03-15T01:40:05;1.07;;;0.50;;
68989;SDS011;56046;47.270;11.368;2023-03-15T01:42:30;0.98;;;0.50;;
68989;SDS011;56046;47.270;11.368;2023-03-15T01:44:56;2.50;;;0.60;;
68989;SDS011;56046;47.270;11.368;2023-03-15T01:47:23;2.00;;;1.17;;
68989;SDS011;56046;47.270;11.368;2023-03-15T01:52:49;1.60;;;0.55;;
68989;SDS011;56046;47.270;11.368;2023-03-15T01:55:16;2.15;;;0.50;;
68989;SDS011;56046;47.270;11.368;2023-03-15T02:00:10;1.33;;;0.50;;
68989;SDS011;56046;47.270;11.368;2023-03-15T02:02:43;1.93;;;0.70;;
68989;SDS011;56046;47.270;11.368;2023-03-15T02:05:10;2.70;;;0.60;;
68989;SDS011;56046;47.270;11.368;2023-03-15T02:07:38;2.20;;;0.60;;
68989;SDS011;56046;47.270;11.368;2023-03-15T02:10:13;1.52;;;0.60;;
68989;SDS011;56046;47.270;11.368;2023-03-15T02:12:40;1.93;;;0.60;;
68989;SDS011;56046;47.270;11.368;2023-03-15T02:15:06;1.55;;;0.60;;
68989;SDS011;56046;47.270;11.368;2023-03-15T02:17:36;1.60;;;0.80;;
68989;SDS011;56046;47.270;11.368;2023-03-15T02:25:09;1.38;;;0.80;;
68989;SDS011;56046;47.270;11.368;2023-03-15T02:27:37;1.08;;;0.50;;
68989;SDS011;56046;47.270;11.368;2023-03-15T02:30:06;1.40;;;0.63;;
68989;SDS011;56046;47.270;11.368;2023-03-15T02:32:32;2.13;;;0.70;;
68989;SDS011;56046;47.270;11.368;2023-03-15T02:34:58;1.23;;;0.55;;
68989;SDS011;56046;47.270;11.368;2023-03-15T02:37:23;2.30;;;0.80;;
68989;SDS011;56046;47.270;11.368;2023-03-15T02:39:48;3.57;;;0.77;;
68989;SDS011;56046;47.270;11.368;2023-03-15T02:42:14;2.00;;;0.80;;
68989;SDS011;56046;47.270;11.368;2023-03-15T02:44:40;1.52;;;0.70;;
68989;SDS011;56046;47.270;11.368;2023-03-15T02:47:12;1.48;;;0.70;;
68989;SDS011;56046;47.270;11.368;2023-03-15T02:49:39;1.60;;;0.60;;
68989;SDS011;56046;47.270;11.368;2023-03-15T02:52:06;0.77;;;0.50;;
68989;SDS011;56046;47.270;11.368;2023-03-15T02:54:32;1.00;;;0.50;;
68989;SDS011;56046;47.270;11.368;2023-03-15T02:56:58;0.88;;;0.40;;
68989;SDS011;56046;47.270;11.368;2023-03-15T02:59:24;1.10;;;0.43;;
68989;SDS011;56046;47.270;11.368;2023-03-15T03:01:49;1.93;;;0.50;;
68989;SDS011;56046;47.270;11.368;2023-03-15T03:04:15;0.70;;;0.60;;
68989;SDS011;56046;47.270;11.368;2023-03-15T03:06:40;0.60;;;0.43;;
68989;SDS011;56046;47.270;11.368;2023-03-15T03:09:08;0.70;;;0.43;;
68989;SDS011;56046;47.270;11.368;2023-03-15T03:11:33;0.40;;;0.30;;
68989;SDS011;56046;47.270;11.368;2023-03-15T03:13:58;1.17;;;0.43;;
68989;SDS011;56046;47.270;11.368;2023-03-15T03:16:24;0.83;;;0.40;;
68989;SDS011;56046;47.270;11.368;2023-03-15T03:18:49;1.48;;;0.50;;
68989;SDS011;56046;47.270;11.368;2023-03-15T03:21:15;0.77;;;0.30;;
68989;SDS011;56046;47.270;11.368;2023-03-15T03:23:40;1.13;;;0.57;;
68989;SDS011;56046;47.270;11.368;2023-03-15T03:26:11;0.80;;;0.40;;
68989;SDS011;56046;47.270;11.368;2023-03-15T03:28:40;0.77;;;0.40;;
68989;SDS011;56046;47.270;11.368;2023-03-15T03:31:06;1.88;;;0.50;;
68989;SDS011;56046;47.270;11.368;2023-03-15T03:33:31;1.30;;;0.53;;
68989;SDS011;56046;47.270;11.368;2023-03-15T03:35:59;1.07;;;0.43;;
68989;SDS011;56046;47.270;11.368;2023-03-15T03:38:26;2.57;;;0.60;;
68989;SDS011;56046;47.270;11.368;2023-03-15T03:40:51;1.33;;;0.65;;
68989;SDS011;56046;47.270;11.368;2023-03-15T03:43:16;1.10;;;0.70;;
68989;SDS011;56046;47.270;11.368;2023-03-15T03:45:41;0.85;;;0.60;;
68989;SDS011;56046;47.270;11.368;2023-03-15T03:48:07;1.08;;;0.40;;
68989;SDS011;56046;47.270;11.368;2023-03-15T03:50:33;0.70;;;0.60;;
68989;SDS011;56046;47.270;11.368;2023-03-15T03:52:58;1.47;;;0.50;;
68989;SDS011;56046;47.270;11.368;2023-03-15T03:55:23;0.93;;;0.50;;
68989;SDS011;56046;47.270;11.368;2023-03-15T03:57:49;1.38;;;0.50;;
68989;SDS011;56046;47.270;11.368;2023-03-15T04:00:15;1.87;;;0.80;;
68989;SDS011;56046;47.270;11.368;2023-03-15T04:02:40;1.08;;;0.50;;
68989;SDS011;56046;47.270;11.368;2023-03-15T04:05:08;0.97;;;0.43;;
68989;SDS011;56046;47.270;11.368;2023-03-15T04:07:35;0.73;;;0.40;;
68989;SDS011;56046;47.270;11.368;2023-03-15T04:10:00;0.63;;;0.50;;
68989;SDS011;56046;47.270;11.368;2023-03-15T04:12:26;0.80;;;0.47;;
68989;SDS011;56046;47.270;11.368;2023-03-15T04:14:51;0.60;;;0.50;;
68989;SDS011;56046;47.270;11.368;2023-03-15T04:17:20;0.95;;;0.60;;
68989;SDS011;56046;47.270;11.368;2023-03-15T04:19:45;0.47;;;0.47;;
68989;SDS011;56046;47.270;11.368;2023-03-15T04:22:13;0.70;;;0.40;;
68989;SDS011;56046;47.270;11.368;2023-03-15T04:24:39;0.40;;;0.40;;
68989;SDS011;56046;47.270;11.368;2023-03-15T04:27:05;0.40;;;0.40;;
68989;SDS011;56046;47.270;11.368;2023-03-15T04:29:30;0.30;;;0.30;;
68989;SDS011;56046;47.270;11.368;2023-03-15T04:31:55;0.25;;;0.20;;
68989;SDS011;56046;47.270;11.368;2023-03-15T04:34:29;0.40;;;0.30;;
68989;SDS011;56046;47.270;11.368;2023-03-15T04:36:54;0.35;;;0.30;;
68989;SDS011;56046;47.270;11.368;2023-03-15T04:39:20;0.40;;;0.40;;
68989;SDS011;56046;47.270;11.368;2023-03-15T04:41:46;0.40;;;0.30;;
68989;SDS011;56046;47.270;11.368;2023-03-15T04:44:11;0.30;;;0.30;;
68989;SDS011;56046;47.270;11.368;2023-03-15T04:46:40;0.50;;;0.40;;
68989;SDS011;56046;47.270;11.368;2023-03-15T04:49:05;1.10;;;0.40;;
68989;SDS011;56046;47.270;11.368;2023-03-15T04:51:31;0.33;;;0.30;;
68989;SDS011;56046;47.270;11.368;2023-03-15T04:53:58;0.43;;;0.40;;
68989;SDS011;56046;47.270;11.368;2023-03-15T04:56:23;0.60;;;0.40;;
68989;SDS011;56046;47.270;11.368;2023-03-15T04:58:48;0.40;;;0.37;;
68989;SDS011;56046;47.270;11.368;2023-03-15T05:01:14;0.40;;;0.30;;
68989;SDS011;56046;47.270;11.368;2023-03-15T05:03:39;0.30;;;0.30;;
68989;SDS011;56046;47.270;11.368;2023-03-15T05:06:04;0.80;;;0.40;;
68989;SDS011;56046;47.270;11.368;2023-03-15T05:08:32;0.30;;;0.30;;
68989;SDS011;56046;47.270;11.368;2023-03-15T05:10:58;0.20;;;0.20;;
68989;SDS011;56046;47.270;11.368;2023-03-15T05:13:23;0.40;;;0.40;;
68989;SDS011;56046;47.270;11.368;2023-03-15T05:15:49;0.40;;;0.30;;
68989;SDS011;56046;47.270;11.368;2023-03-15T05:18:14;0.40;;;0.30;;
68989;SDS011;56046;47.270;11.368;2023-03-15T05:20:39;0.40;;;0.30;;
68989;SDS011;56046;47.270;11.368;2023-03-15T05:23:05;0.57;;;0.30;;
68989;SDS011;56046;47.270;11.368;2023-03-15T05:25:30;0.40;;;0.30;;
68989;SDS011;56046;47.270;11.368;2023-03-15T05:27:55;0.87;;;0.30;;
68989;SDS011;56046;47.270;11.368;2023-03-15T05:30:20;0.30;;;0.30;;
68989;SDS011;56046;47.270;11.368;2023-03-15T05:32:46;2.20;;;0.40;;
68989;SDS011;56046;47.270;11.368;2023-03-15T05:35:11;1.00;;;0.40;;
68989;SDS011;56046;47.270;11.368;2023-03-15T05:37:37;0.50;;;0.40;;
68989;SDS011;56046;47.270;11.368;2023-03-15T05:40:02;0.73;;;0.40;;
68989;SDS011;56046;47.270;11.368;2023-03-15T05:42:32;0.77;;;0.40;;
68989;SDS011;56046;47.270;11.368;2023-03-15T05:44:57;1.43;;;0.60;;
68989;SDS011;56046;47.270;11.368;2023-03-15T05:47:22;0.30;;;0.30;;
68989;SDS011;56046;47.270;11.368;2023-03-15T05:49:48;0.67;;;0.30;;
68989;SDS011;56046;47.270;11.368;2023-03-15T05:52:13;2.93;;;1.30;;
68989;SDS011;56046;47.270;11.368;2023-03-15T05:54:39;1.17;;;0.50;;
68989;SDS011;56046;47.270;11.368;2023-03-15T05:57:04;0.80;;;0.40;;
68989;SDS011;56046;47.270;11.368;2023-03-15T05:59:30;0.40;;;0.40;;
68989;SDS011;56046;47.270;11.368;2023-03-15T06:01:55;0.67;;;0.50;;
68989;SDS011;56046;47.270;11.368;2023-03-15T06:04:21;1.50;;;0.40;;
68989;SDS011;56046;47.270;11.368;2023-03-15T06:06:46;0.53;;;0.40;;
68989;SDS011;56046;47.270;11.368;2023-03-15T06:09:12;1.50;;;0.63;;
68989;SDS011;56046;47.270;11.368;2023-03-15T06:11:37;1.37;;;0.50;;
68989;SDS011;56046;47.270;11.368;2023-03-15T06:14:02;0.67;;;0.30;;
68989;SDS011;56046;47.270;11.368;2023-03-15T06:16:27;0.83;;;0.40;;
68989;SDS011;56046;47.270;11.368;2023-03-15T06:18:53;1.05;;;0.40;;
68989;SDS011;56046;47.270;11.368;2023-03-15T06:21:18;1.00;;;0.70;;
68989;SDS011;56046;47.270;11.368;2023-03-15T06:23:43;0.50;;;0.40;;
68989;SDS011;56046;47.270;11.368;2023-03-15T06:26:09;1.00;;;0.50;;
68989;SDS011;56046;47.270;11.368;2023-03-15T06:28:34;0.80;;;0.60;;
68989;SDS011;56046;47.270;11.368;2023-03-15T06:31:06;1.83;;;0.50;;
68989;SDS011;56046;47.270;11.368;2023-03-15T06:33:32;0.95;;;0.50;;
68989;SDS011;56046;47.270;11.368;2023-03-15T06:35:57;0.33;;;0.33;;
68989;SDS011;56046;47.270;11.368;2023-03-15T06:38:22;0.70;;;0.40;;
68989;SDS011;56046;47.270;11.368;2023-03-15T06:40:47;1.30;;;0.40;;
68989;SDS011;56046;47.270;11.368;2023-03-15T06:43:13;1.30;;;0.50;;
68989;SDS011;56046;47.270;11.368;2023-03-15T06:45:46;0.95;;;0.55;;
68989;SDS011;56046;47.270;11.368;2023-03-15T06:48:12;0.57;;;0.40;;
68989;SDS011;56046;47.270;11.368;2023-03-15T06:50:38;0.85;;;0.40;;
68989;SDS011;56046;47.270;11.368;2023-03-15T06:53:03;0.93;;;0.60;;
68989;SDS011;56046;47.270;11.368;2023-03-15T06:55:29;3.00;;;1.10;;
68989;SDS011;56046;47.270;11.368;2023-03-15T06:57:54;2.70;;;0.90;;
68989;SDS011;56046;47.270;11.368;2023-03-15T07:00:19;1.80;;;0.70;;
68989;SDS011;56046;47.270;11.368;2023-03-15T07:02:45;0.60;;;0.47;;
68989;SDS011;56046;47.270;11.368;2023-03-15T07:05:10;1.63;;;0.63;;
68989;SDS011;56046;47.270;11.368;2023-03-15T07:07:35;1.40;;;0.80;;
68989;SDS011;56046;47.270;11.368;2023-03-15T07:10:01;1.10;;;0.60;;
68989;SDS011;56046;47.270;11.368;2023-03-15T07:12:26;1.05;;;0.60;;
68989;SDS011;56046;47.270;11.368;2023-03-15T07:14:51;0.60;;;0.50;;
68989;SDS011;56046;47.270;11.368;2023-03-15T07:17:17;0.90;;;0.50;;
68989;SDS011;56046;47.270;11.368;2023-03-15T07:19:42;4.77;;;1.40;;
68989;SDS011;56046;47.270;11.368;2023-03-15T07:22:07;4.10;;;1.67;;
68989;SDS011;56046;47.270;11.368;2023-03-15T07:24:33;1.77;;;0.70;;
68989;SDS011;56046;47.270;11.368;2023-03-15T07:26:58;3.60;;;1.00;;
68989;SDS011;56046;47.270;11.368;2023-03-15T07:29:23;3.27;;;1.33;;
68989;SDS011;56046;47.270;11.368;2023-03-15T07:31:49;4.00;;;1.50;;
68989;SDS011;56046;47.270;11.368;2023-03-15T07:34:14;7.30;;;1.70;;
68989;SDS011;56046;47.270;11.368;2023-03-15T07:36:39;4.03;;;1.43;;
68989;SDS011;56046;47.270;11.368;2023-03-15T07:39:05;7.90;;;2.20;;
68989;SDS011;56046;47.270;11.368;2023-03-15T07:41:30;9.27;;;2.90;;
68989;SDS011;56046;47.270;11.368;2023-03-15T07:43:55;6.93;;;2.10;;
68989;SDS011;56046;47.270;11.368;2023-03-15T07:46:21;10.30;;;3.43;;
68989;SDS011;56046;47.270;11.368;2023-03-15T07:48:46;2.67;;;1.10;;
68989;SDS011;56046;47.270;11.368;2023-03-15T07:51:12;1.67;;;0.50;;
68989;SDS011;56046;47.270;11.368;2023-03-15T07:53:37;1.10;;;0.60;;
68989;SDS011;56046;47.270;11.368;2023-03-15T07:56:02;1.13;;;0.60;;
68989;SDS011;56046;47.270;11.368;2023-03-15T07:58:28;1.27;;;0.73;;
68989;SDS011;56046;47.270;11.368;2023-03-15T08:00:56;3.07;;;1.20;;
68989;SDS011;56046;47.270;11.368;2023-03-15T08:03:22;2.58;;;1.10;;
68989;SDS011;56046;47.270;11.368;2023-03-15T08:05:48;2.25;;;0.95;;
68989;SDS011;56046;47.270;11.368;2023-03-15T08:08:13;0.80;;;0.60;;
68989;SDS011;56046;47.270;11.368;2023-03-15T08:10:39;1.20;;;0.80;;
68989;SDS011;56046;47.270;11.368;2023-03-15T08:13:04;3.90;;;1.57;;
68989;SDS011;56046;47.270;11.368;2023-03-15T08:15:29;3.83;;;0.88;;
68989;SDS011;56046;47.270;11.368;2023-03-15T08:17:54;3.50;;;1.10;;
68989;SDS011;56046;47.270;11.368;2023-03-15T08:20:20;2.97;;;1.20;;
68989;SDS011;56046;47.270;11.368;2023-03-15T08:22:48;1.30;;;0.70;;
68989;SDS011;56046;47.270;11.368;2023-03-15T08:25:16;1.05;;;0.40;;
68989;SDS011;56046;47.270;11.368;2023-03-15T08:27:42;2.13;;;0.73;;
68989;SDS011;56046;47.270;11.368;2023-03-15T08:30:08;1.48;;;0.60;;
68989;SDS011;56046;47.270;11.368;2023-03-15T08:32:36;1.92;;;0.65;;
68989;SDS011;56046;47.270;11.368;2023-03-15T08:35:01;0.97;;;0.73;;
68989;SDS011;56046;47.270;11.368;2023-03-15T08:37:26;2.40;;;0.90;;
68989;SDS011;56046;47.270;11.368;2023-03-15T08:39:52;1.17;;;0.77;;
68989;SDS011;56046;47.270;11.368;2023-03-15T08:42:25;0.98;;;0.60;;
68989;SDS011;56046;47.270;11.368;2023-03-15T08:44:50;1.10;;;0.70;;
68989;SDS011;56046;47.270;11.368;2023-03-15T08:47:15;1.00;;;0.50;;
68989;SDS011;56046;47.270;11.368;2023-03-15T08:49:41;1.63;;;0.70;;
68989;SDS011;56046;47.270;11.368;2023-03-15T08:52:06;1.93;;;0.87;;
68989;SDS011;56046;47.270;11.368;2023-03-15T08:54:31;1.17;;;0.70;;
68989;SDS011;56046;47.270;11.368;2023-03-15T08:56:57;2.70;;;0.60;;
68989;SDS011;56046;47.270;11.368;2023-03-15T08:59:22;1.40;;;0.60;;
68989;SDS011;56046;47.270;11.368;2023-03-15T09:01:47;2.75;;;0.80;;
68989;SDS011;56046;47.270;11.368;2023-03-15T09:04:12;1.00;;;0.70;;
68989;SDS011;56046;47.270;11.368;2023-03-15T09:06:38;1.00;;;0.60;;
68989;SDS011;56046;47.270;11.368;2023-03-15T09:09:03;1.57;;;0.80;;
68989;SDS011;56046;47.270;11.368;2023-03-15T09:11:28;1.80;;;0.60;;
68989;SDS011;56046;47.270;11.368;2023-03-15T09:13:54;1.17;;;0.80;;
68989;SDS011;56046;47.270;11.368;2023-03-15T09:16:19;2.27;;;0.80;;
68989;SDS011;56046;47.270;11.368;2023-03-15T09:18:44;2.70;;;0.73;;
68989;SDS011;56046;47.270;11.368;2023-03-15T09:21:09;1.23;;;0.60;;
68989;SDS011;56046;47.270;11.368;2023-03-15T09:23:35;1.50;;;0.60;;
68989;SDS011;56046;47.270;11.368;2023-03-15T09:26:01;0.87;;;0.70;;
68989;SDS011;56046;47.270;11.368;2023-03-15T09:28:26;0.77;;;0.60;;
68989;SDS011;56046;47.270;11.368;2023-03-15T09:30:51;1.17;;;0.80;;
68989;SDS011;56046;47.270;11.368;2023-03-15T09:33:17;1.00;;;0.77;;
68989;SDS011;56046;47.270;11.368;2023-03-15T09:35:42;0.87;;;0.60;;
68989;SDS011;56046;47.270;11.368;2023-03-15T09:38:08;1.23;;;0.60;;
68989;SDS011;56046;47.270;11.368;2023-03-15T09:40:37;0.93;;;0.60;;
68989;SDS011;56046;47.270;11.368;2023-03-15T09:43:11;1.50;;;0.90;;
68989;SDS011;56046;47.270;11.368;2023-03-15T09:50:44;1.00;;;0.70;;
68989;SDS011;56046;47.270;11.368;2023-03-15T09:55:45;1.17;;;0.60;;
68989;SDS011;56046;47.270;11.368;2023-03-15T09:58:13;1.52;;;0.80;;
68989;SDS011;56046;47.270;11.368;2023-03-15T10:00:42;2.30;;;0.70;;
68989;SDS011;56046;47.270;11.368;2023-03-15T10:03:11;1.20;;;1.00;;
68989;SDS011;56046;47.270;11.368;2023-03-15T10:05:40;2.17;;;0.80;;
68989;SDS011;56046;47.270;11.368;2023-03-15T10:08:09;1.20;;;0.70;;
68989;SDS011;56046;47.270;11.368;2023-03-15T10:10:35;1.75;;;0.60;;
68989;SDS011;56046;47.270;11.368;2023-03-15T10:16:06;2.13;;;0.70;;
68989;SDS011;56046;47.270;11.368;2023-03-15T10:21:03;1.60;;;0.70;;
68989;SDS011;56046;47.270;11.368;2023-03-15T10:23:33;4.00;;;1.40;;
68989;SDS011;56046;47.270;11.368;2023-03-15T10:25:59;2.28;;;0.70;;
68989;SDS011;56046;47.270;11.368;2023-03-15T10:28:28;0.97;;;0.70;;
68989;SDS011;56046;47.270;11.368;2023-03-15T10:30:55;0.90;;;0.60;;
68989;SDS011;56046;47.270;11.368;2023-03-15T10:33:25;2.90;;;0.88;;
68989;SDS011;56046;47.270;11.368;2023-03-15T10:35:52;2.25;;;0.60;;
68989;SDS011;56046;47.270;11.368;2023-03-15T10:38:21;0.50;;;0.50;;
68989;SDS011;56046;47.270;11.368;2023-03-15T10:43:20;0.80;;;0.50;;
68989;SDS011;56046;47.270;11.368;2023-03-15T10:46:03;0.67;;;0.50;;
68989;SDS011;56046;47.270;11.368;2023-03-15T10:48:32;2.25;;;0.60;;
68989;SDS011;56046;47.270;11.368;2023-03-15T10:51:14;0.88;;;0.63;;
68989;SDS011;56046;47.270;11.368;2023-03-15T10:53:46;1.15;;;0.60;;
68989;SDS011;56046;47.270;11.368;2023-03-15T10:56:12;1.45;;;0.60;;
68989;SDS011;56046;47.270;11.368;2023-03-15T10:58:45;1.63;;;0.50;;
68989;SDS011;56046;47.270;11.368;2023-03-15T11:01:21;1.35;;;0.60;;
68989;SDS011;56046;47.270;11.368;2023-03-15T11:03:52;1.23;;;0.68;;
68989;SDS011;56046;47.270;11.368;2023-03-15T11:06:25;0.73;;;0.50;;
68989;SDS011;56046;47.270;11.368;2023-03-15T11:08:51;2.15;;;0.70;;
68989;SDS011;56046;47.270;11.368;2023-03-15T11:11:16;2.13;;;0.57;;
68989;SDS011;56046;47.270;11.368;2023-03-15T11:13:41;1.43;;;0.70;;
68989;SDS011;56046;47.270;11.368;2023-03-15T11:16:19;1.10;;;0.57;;
68989;SDS011;56046;47.270;11.368;2023-03-15T11:21:11;1.03;;;0.50;;
68989;SDS011;56046;47.270;11.368;2023-03-15T11:23:38;0.77;;;0.60;;
68989;SDS011;56046;47.270;11.368;2023-03-15T11:26:04;1.40;;;0.70;;
68989;SDS011;56046;47.270;11.368;2023-03-15T11:28:31;2.70;;;0.70;;
68989;SDS011;56046;47.270;11.368;2023-03-15T11:30:56;1.33;;;0.70;;
68989;SDS011;56046;47.270;11.368;2023-03-15T11:35:50;0.90;;;0.70;;
68989;SDS011;56046;47.270;11.368;2023-03-15T11:38:17;0.77;;;0.65;;
68989;SDS011;56046;47.270;11.368;2023-03-15T11:40:50;1.00;;;0.60;;
68989;SDS011;56046;47.270;11.368;2023-03-15T11:46:02;0.83;;;0.50;;
68989;SDS011;56046;47.270;11.368;2023-03-15T11:49:03;1.23;;;0.70;;
68989;SDS011;56046;47.270;11.368;2023-03-15T11:51:20;1.42;;;0.60;;
68989;SDS011;56046;47.270;11.368;2023-03-15T11:56:48;1.05;;;0.70;;
68989;SDS011;56046;47.270;11.368;2023-03-15T11:59:14;0.70;;;0.60;;
68989;SDS011;56046;47.270;11.368;2023-03-15T12:01:44;0.98;;;0.50;;
68989;SDS011;56046;47.270;11.368;2023-03-15T12:06:51;1.13;;;0.60;;
68989;SDS011;56046;47.270;11.368;2023-03-15T12:12:00;1.73;;;0.60;;
68989;SDS011;56046;47.270;11.368;2023-03-15T12:14:29;1.08;;;0.57;;
68989;SDS011;56046;47.270;11.368;2023-03-15T12:17:31;0.75;;;0.50;;
68989;SDS011;56046;47.270;11.368;2023-03-15T12:19:40;0.97;;;0.50;;
68989;SDS011;56046;47.270;11.368;2023-03-15T12:22:10;1.23;;;0.60;;
68989;SDS011;56046;47.270;11.368;2023-03-15T12:24:37;2.00;;;0.70;;
68989;SDS011;56046;47.270;11.368;2023-03-15T12:27:21;0.88;;;0.60;;
68989;SDS011;56046;47.270;11.368;2023-03-15T12:29:47;1.40;;;0.60;;
68989;SDS011;56046;47.270;11.368;2023-03-15T12:32:14;1.47;;;0.50;;
68989;SDS011;56046;47.270;11.368;2023-03-15T12:34:50;1.40;;;0.50;;
68989;SDS011;56046;47.270;11.368;2023-03-15T12:37:20;2.70;;;0.57;;
68989;SDS011;56046;47.270;11.368;2023-03-15T12:39:48;0.60;;;0.52;;
68989;SDS011;56046;47.270;11.368;2023-03-15T12:45:30;1.00;;;0.60;;
68989;SDS011;56046;47.270;11.368;2023-03-15T12:48:13;0.75;;;0.50;;
68989;SDS011;56046;47.270;11.368;2023-03-15T12:55:46;1.15;;;0.60;;
68989;SDS011;56046;47.270;11.368;2023-03-15T12:58:12;1.37;;;0.60;;
68989;SDS011;56046;47.270;11.368;2023-03-15T13:00:40;2.45;;;0.70;;
68989;SDS011;56046;47.270;11.368;2023-03-15T13:03:39;0.90;;;0.60;;
68989;SDS011;56046;47.270;11.368;2023-03-15T13:10:59;0.85;;;0.73;;
68989;SDS011;56046;47.270;11.368;2023-03-15T13:16:16;0.90;;;0.60;;
68989;SDS011;56046;47.270;11.368;2023-03-15T13:18:58;0.60;;;0.50;;
68989;SDS011;56046;47.270;11.368;2023-03-15T13:23:57;0.90;;;0.60;;
68989;SDS011;56046;47.270;11.368;2023-03-15T13:29:02;0.68;;;0.65;;
68989;SDS011;56046;47.270;11.368;2023-03-15T13:31:32;0.90;;;0.60;;
68989;SDS011;56046;47.270;11.368;2023-03-15T13:34:06;1.48;;;0.50;;
68989;SDS011;56046;47.270;11.368;2023-03-15T13:36:47;1.02;;;0.80;;
68989;SDS011;56046;47.270;11.368;2023-03-15T13:39:21;1.60;;;0.60;;
68989;SDS011;56046;47.270;11.368;2023-03-15T13:42:00;1.13;;;0.67;;
68989;SDS011;56046;47.270;11.368;2023-03-15T13:44:27;1.05;;;0.77;;
68989;SDS011;56046;47.270;11.368;2023-03-15T13:46:52;2.05;;;0.75;;
68989;SDS011;56046;47.270;11.368;2023-03-15T13:49:18;0.70;;;0.60;;
68989;SDS011;56046;47.270;11.368;2023-03-15T13:51:45;0.65;;;0.60;;
68989;SDS011;56046;47.270;11.368;2023-03-15T13:54:23;1.23;;;0.63;;
68989;SDS011;56046;47.270;11.368;2023-03-15T13:56:56;0.98;;;0.57;;
68989;SDS011;56046;47.270;11.368;2023-03-15T13:59:44;1.20;;;0.80;;
68989;SDS011;56046;47.270;11.368;2023-03-15T14:04:57;0.80;;;0.60;;
68989;SDS011;56046;47.270;11.368;2023-03-15T14:07:25;0.95;;;0.60;;
68989;SDS011;56046;47.270;11.368;2023-03-15T14:12:35;0.60;;;0.50;;
68989;SDS011;56046;47.270;11.368;2023-03-15T14:15:00;1.27;;;0.67;;
68989;SDS011;56046;47.270;11.368;2023-03-15T14:17:29;0.60;;;0.60;;
68989;SDS011;56046;47.270;11.368;2023-03-15T14:20:02;0.77;;;0.60;;
68989;SDS011;56046;47.270;11.368;2023-03-15T14:22:31;2.00;;;0.80;;
68989;SDS011;56046;47.270;11.368;2023-03-15T14:24:56;1.83;;;0.90;;
68989;SDS011;56046;47.270;11.368;2023-03-15T14:27:25;1.00;;;0.50;;
68989;SDS011;56046;47.270;11.368;2023-03-15T14:29:58;1.20;;;0.60;;
68989;SDS011;56046;47.270;11.368;2023-03-15T14:32:25;0.75;;;0.43;;
68989;SDS011;56046;47.270;11.368;2023-03-15T14:34:56;0.50;;;0.40;;
68989;SDS011;56046;47.270;11.368;2023-03-15T14:37:30;0.50;;;0.40;;
68989;SDS011;56046;47.270;11.368;2023-03-15T14:42:32;0.77;;;0.63;;
68989;SDS011;56046;47.270;11.368;2023-03-15T14:44:58;0.93;;;0.50;;
68989;SDS011;56046;47.270;11.368;2023-03-15T14:47:23;0.60;;;0.50;;
68989;SDS011;56046;47.270;11.368;2023-03-15T14:49:49;1.10;;;0.60;;
68989;SDS011;56046;47.270;11.368;2023-03-15T14:52:14;0.70;;;0.50;;
68989;SDS011;56046;47.270;11.368;2023-03-15T14:54:41;0.93;;;0.63;;
68989;SDS011;56046;47.270;11.368;2023-03-15T14:57:07;0.90;;;0.40;;
68989;SDS011;56046;47.270;11.368;2023-03-15T14:59:33;0.60;;;0.50;;
68989;SDS011;56046;47.270;11.368;2023-03-15T15:01:58;8.17;;;2.80;;
68989;SDS011;56046;47.270;11.368;2023-03-15T15:04:26;2.58;;;0.90;;
68989;SDS011;56046;47.270;11.368;2023-03-15T15:06:54;1.33;;;0.57;;
68989;SDS011;56046;47.270;11.368;2023-03-15T15:09:22;0.50;;;0.45;;
68989;SDS011;56046;47.270;11.368;2023-03-15T15:11:49;1.80;;;0.80;;
68989;SDS011;56046;47.270;11.368;2023-03-15T15:14:15;1.00;;;0.50;;
68989;SDS011;56046;47.270;11.368;2023-03-15T15:16:40;1.00;;;0.50;;
68989;SDS011;56046;47.270;11.368;2023-03-15T15:19:06;1.27;;;0.50;;
68989;SDS011;56046;47.270;11.368;2023-03-15T15:21:31;1.20;;;0.50;;
68989;SDS011;56046;47.270;11.368;2023-03-15T15:23:57;1.73;;;0.55;;
68989;SDS011;56046;47.270;11.368;2023-03-15T15:26:23;1.00;;;0.67;;
68989;SDS011;56046;47.270;11.368;2023-03-15T15:28:52;1.27;;;0.60;;
68989;SDS011;56046;47.270;11.368;2023-03-15T15:31:18;1.20;;;0.90;;
68989;SDS011;56046;47.270;11.368;2023-03-15T15:33:46;1.27;;;0.47;;
68989;SDS011;56046;47.270;11.368;2023-03-15T15:36:13;1.03;;;0.53;;
68989;SDS011;56046;47.270;11.368;2023-03-15T15:38:39;1.23;;;0.70;;
68989;SDS011;56046;47.270;11.368;2023-03-15T15:41:08;1.20;;;0.70;;
68989;SDS011;56046;47.270;11.368;2023-03-15T15:43:35;0.60;;;0.32;;